Time;durP1;ratioP1;P1;durP2;ratioP2;P2;SDS_P1;SDS_P2;PMS_P1;PMS_P2;Temp;Humidity;BMP_temperature;BMP_pressure;BME280_temperature;BME280_humidity;BME280_pressure;Samples;Min_cycle;Max_cycle;Signal;HPM_P1;HPM_P2
2021/12/24 00:01:17;;;;;;;;;;;;;;;7.26;100.00;99919.03;4960195;28;20021;-68
2021/12/24 00:03:42;;;;;;;;;;;;;;;7.28;99.64;99912.69;4957973;28;19993;-68
2021/12/24 00:06:07;;;;;;;;;;;;;;;7.44;98.75;99901.59;4964404;28;19972;-68
2021/12/24 00:08:33;;;;;;;;;;;;;;;7.52;98.20;99909.66;4976143;28;19969;-68
2021/12/24 00:11:00;;;;;;;;;;;;;;;7.70;97.16;99907.16;4988081;28;20345;-68
2021/12/24 00:13:26;;;;;;;;;;;;;;;7.59;96.93;99909.09;4976373;28;19904;-68
2021/12/24 00:15:57;;;;;;;;;;;;;;;7.59;96.81;99904.66;4978036;28;19970;-68
2021/12/24 00:35:07;;;;;;;;;;;;;;;7.69;96.12;99897.59;4975153;28;19912;-69
2021/12/24 00:37:22;;;;;;;;;;;;;;;7.59;96.20;99886.25;4981471;28;20267;-68
2021/12/24 00:39:59;;;;;;;;;;;;;;;7.63;96.15;99890.25;4979293;28;19916;-68
2021/12/24 00:42:25;;;;;;;;;;;;;;;7.71;95.27;99898.31;4974755;28;19949;-67
2021/12/24 00:44:50;;;;;;;;;;;;;;;7.64;95.78;99885.81;4972544;28;20028;-68
2021/12/24 00:47:15;;;;;;;;;;;;;;;7.64;95.87;99888.44;4977490;28;20034;-68
2021/12/24 00:49:42;;;;;;;;;;;;;;;7.84;95.14;99884.84;4975479;28;20392;-68
2021/12/24 00:52:21;;;;;;;;;;;;;;;7.62;95.20;99885.97;4953214;28;19917;-68
2021/12/24 00:57:30;;;;;;;;;;;;;;;7.66;95.62;99881.25;4951034;28;20217;-68
2021/12/24 00:59:55;;;;;;;;;;;;;;;7.62;95.47;99887.78;4954122;28;20220;-68
2021/12/24 01:02:20;;;;;;;;;;;;;;;7.59;95.18;99888.03;4956211;28;20243;-68
2021/12/24 01:04:46;;;;;;;;;;;;;;;7.60;95.21;99873.91;4954585;28;20760;-68
2021/12/24 01:07:11;;;;;;;;;;;;;;;7.68;94.83;99887.19;4964445;28;20663;-67
2021/12/24 01:09:36;;;;;;;;;;;;;;;7.69;94.92;99873.06;4966165;28;20884;-68
2021/12/24 01:12:01;;;;;;;;;;;;;;;7.78;94.18;99872.22;4974340;28;20851;-68
2021/12/24 01:14:29;;;;;;;;;;;;;;;7.82;93.46;99878.88;4976682;28;20106;-68
2021/12/24 01:19:51;;;;;;;;;;;;;;;7.73;93.52;99875.28;4922042;28;19957;-68
2021/12/24 01:27:53;;;;;;;;;;;;;;;7.71;93.80;99877.25;4955833;28;19946;-68
2021/12/24 01:38:37;;;;;;;;;;;;;;;7.74;93.97;99862.94;4962711;28;20177;-68
2021/12/24 01:41:08;;;;;;;;;;;;;;;7.71;94.55;99860.59;4954435;28;20395;-67
2021/12/24 01:43:34;;;;;;;;;;;;;;;7.77;94.35;99861.81;4953989;28;19901;-68
2021/12/24 01:45:59;;;;;;;;;;;;;;;7.71;93.92;99858.81;4952215;28;20233;-69
2021/12/24 01:48:24;;;;;;;;;;;;;;;7.63;94.30;99858.66;4953049;28;19954;-68
2021/12/24 01:50:50;;;;;;;;;;;;;;;7.77;94.41;99854.78;4952525;28;19921;-69
2021/12/24 01:53:16;;;;;;;;;;;;;;;7.63;94.70;99852.56;4954190;28;20649;-68
2021/12/24 01:55:41;;;;;;;;;;;;;;;7.63;94.89;99858.66;4951908;28;20000;-68
2021/12/24 01:58:07;;;;;;;;;;;;;;;7.85;94.15;99857.50;4935846;28;20474;-68
2021/12/24 02:00:42;;;;;;;;;;;;;;;7.77;94.60;99859.19;4936469;28;20010;-68
2021/12/24 02:03:08;;;;;;;;;;;;;;;7.70;94.83;99851.03;4951198;28;20444;-68
2021/12/24 02:05:33;;;;;;;;;;;;;;;7.75;94.92;99856.69;4951714;28;20659;-69
2021/12/24 02:07:58;;;;;;;;;;;;;;;7.79;94.71;99849.38;4946945;28;20019;-69
2021/12/24 02:10:24;;;;;;;;;;;;;;;7.78;94.01;99848.50;4969174;28;19924;-69
2021/12/24 02:12:49;;;;;;;;;;;;;;;7.77;94.15;99854.78;4971032;28;20831;-68
2021/12/24 02:15:26;;;;;;;;;;;;;;;7.72;94.33;99852.53;4970470;28;20711;-68
2021/12/24 02:28:41;;;;;;;;;;;;;;;7.74;94.50;99839.22;4957804;28;20859;-69
2021/12/24 02:31:07;;;;;;;;;;;;;;;7.83;94.18;99843.66;4967091;28;19920;-68
2021/12/24 02:33:32;;;;;;;;;;;;;;;7.91;93.75;99841.16;4953495;28;19935;-68
2021/12/24 02:35:57;;;;;;;;;;;;;;;7.84;93.81;99845.34;4957578;28;20699;-68
2021/12/24 02:38:23;;;;;;;;;;;;;;;7.99;93.06;99842.25;4967336;28;20739;-68
2021/12/24 02:40:48;;;;;;;;;;;;;;;7.88;93.17;99830.91;4959509;28;19913;-68
2021/12/24 02:43:16;;;;;;;;;;;;;;;8.10;92.70;99828.09;4951470;28;19909;-67
2021/12/24 02:45:44;;;;;;;;;;;;;;;8.00;92.27;99823.66;4956819;28;19939;-70
2021/12/24 02:48:25;;;;;;;;;;;;;;;7.87;93.11;99828.44;4955949;28;20186;-68
2021/12/24 02:56:39;;;;;;;;;;;;;;;7.97;92.88;99828.41;4949830;28;19954;-68
2021/12/24 02:59:05;;;;;;;;;;;;;;;7.95;92.75;99811.91;4933865;28;20071;-72
2021/12/24 03:01:32;;;;;;;;;;;;;;;8.01;92.40;99814.78;4943417;28;20432;-68
2021/12/24 03:03:57;;;;;;;;;;;;;;;7.98;91.89;99815.09;4955416;28;20026;-68
2021/12/24 03:06:29;;;;;;;;;;;;;;;8.13;91.23;99811.97;4956750;28;19909;-68
2021/12/24 03:08:55;;;;;;;;;;;;;;;8.06;91.81;99817.00;4972398;28;20012;-68
2021/12/24 03:11:20;;;;;;;;;;;;;;;8.17;91.17;99814.19;4934127;28;19925;-68
2021/12/24 03:13:46;;;;;;;;;;;;;;;8.19;90.81;99806.97;4935673;28;20046;-68
2021/12/24 03:16:11;;;;;;;;;;;;;;;8.01;91.10;99801.63;4971552;28;20015;-67
2021/12/24 03:18:39;;;;;;;;;;;;;;;7.94;91.52;99803.16;4968739;28;21894;-67
2021/12/24 03:21:09;;;;;;;;;;;;;;;8.00;91.89;99807.03;4953438;28;19912;-67
2021/12/24 03:24:33;;;;;;;;;;;;;;;8.11;91.29;99816.56;4976081;28;19976;-67
2021/12/24 03:26:40;;;;;;;;;;;;;;;8.04;91.06;99814.50;4974573;28;19920;-70
2021/12/24 03:29:07;;;;;;;;;;;;;;;8.12;90.93;99819.03;4976533;28;19912;-70
2021/12/24 03:31:33;;;;;;;;;;;;;;;8.14;90.74;99813.66;4972115;28;19924;-68
2021/12/24 03:33:58;;;;;;;;;;;;;;;8.14;90.84;99814.47;4975524;28;20823;-69
2021/12/24 03:36:23;;;;;;;;;;;;;;;8.10;90.51;99823.63;4966440;28;20101;-68
2021/12/24 03:38:49;;;;;;;;;;;;;;;8.13;90.65;99823.34;4976363;28;19956;-68
2021/12/24 03:41:14;;;;;;;;;;;;;;;7.99;91.07;99806.19;4973929;28;20475;-68
2021/12/24 03:43:39;;;;;;;;;;;;;;;8.03;91.22;99812.00;4976548;28;19916;-68
2021/12/24 03:46:08;;;;;;;;;;;;;;;8.16;91.21;99804.59;4986056;28;19928;-68
2021/12/24 03:48:57;;;;;;;;;;;;;;;8.10;90.90;99807.81;4982018;28;19965;-70
2021/12/24 03:51:47;;;;;;;;;;;;;;;8.18;90.89;99800.03;4994675;28;19912;-68
2021/12/24 03:56:56;;;;;;;;;;;;;;;8.09;92.16;99816.69;4981310;28;19917;-68
2021/12/24 03:59:21;;;;;;;;;;;;;;;8.05;92.08;99810.91;4958783;28;19954;-68
2021/12/24 04:01:47;;;;;;;;;;;;;;;8.09;92.13;99816.69;4977658;28;20006;-68
2021/12/24 04:04:12;;;;;;;;;;;;;;;7.96;92.50;99800.38;4975981;28;20201;-68
2021/12/24 04:06:37;;;;;;;;;;;;;;;8.14;92.46;99797.84;4970383;28;19960;-68
2021/12/24 04:09:03;;;;;;;;;;;;;;;8.19;91.89;99811.41;4965600;28;19913;-68
2021/12/24 04:11:28;;;;;;;;;;;;;;;8.16;91.83;99798.50;4975025;28;19928;-68
2021/12/24 04:13:54;;;;;;;;;;;;;;;8.03;92.80;99804.09;4979963;28;20239;-69
2021/12/24 04:16:19;;;;;;;;;;;;;;;7.96;93.16;99810.94;4977882;28;19909;-68
2021/12/24 04:18:58;;;;;;;;;;;;;;;7.99;92.66;99808.00;4976322;28;19990;-70
2021/12/24 04:26:51;;;;;;;;;;;;;;;7.93;92.85;99813.84;4979830;28;19916;-69
2021/12/24 04:29:16;;;;;;;;;;;;;;;8.02;92.80;99816.47;4974748;28;20943;-68
2021/12/24 04:31:45;;;;;;;;;;;;;;;7.99;92.52;99821.19;4958529;28;20809;-68
2021/12/24 04:34:12;;;;;;;;;;;;;;;8.00;92.70;99814.94;4953548;28;20095;-69
2021/12/24 04:51:07;;;;;;;;;;;;;;;7.99;91.71;99822.00;4972075;28;20898;-69
2021/12/24 05:01:31;;;;;;;;;;;;;;;8.15;90.98;99826.69;4974956;28;19905;-69
2021/12/24 05:03:58;;;;;;;;;;;;;;;8.07;90.48;99827.38;4976652;28;19931;-69
2021/12/24 05:11:14;;;;;;;;;;;;;;;8.10;90.21;99818.38;4968897;28;19924;-69
2021/12/24 05:13:39;;;;;;;;;;;;;;;8.02;90.46;99823.53;4987603;28;19908;-71
2021/12/24 05:21:42;;;;;;;;;;;;;;;8.13;90.07;99819.88;4972469;28;19904;-68
2021/12/24 05:24:20;;;;;;;;;;;;;;;8.13;90.13;99827.78;4942047;28;19914;-68
2021/12/24 05:26:49;;;;;;;;;;;;;;;8.10;90.30;99823.63;4946534;28;19909;-68
2021/12/24 05:29:14;;;;;;;;;;;;;;;7.99;90.49;99827.25;4950735;28;19920;-68
2021/12/24 05:31:40;;;;;;;;;;;;;;;8.09;90.32;99827.25;4951565;28;19912;-68
2021/12/24 05:34:05;;;;;;;;;;;;;;;8.24;89.47;99828.44;4953700;28;19909;-67
2021/12/24 05:36:30;;;;;;;;;;;;;;;8.22;89.11;99826.91;4955917;28;19942;-68
2021/12/24 05:38:56;;;;;;;;;;;;;;;8.20;89.58;99820.97;4970502;28;19909;-67
2021/12/24 05:41:21;;;;;;;;;;;;;;;8.34;89.12;99835.50;4972750;28;19970;-67
2021/12/24 05:43:47;;;;;;;;;;;;;;;8.33;88.47;99834.63;4970464;28;20279;-70
2021/12/24 05:46:12;;;;;;;;;;;;;;;8.29;88.54;99832.44;4953723;28;19928;-70
2021/12/24 05:48:37;;;;;;;;;;;;;;;8.39;88.04;99828.81;4970857;28;20195;-67
2021/12/24 05:51:03;;;;;;;;;;;;;;;8.33;88.27;99841.72;4970339;28;19998;-68
2021/12/24 05:53:28;;;;;;;;;;;;;;;8.30;88.56;99840.22;4971297;28;19913;-67
2021/12/24 05:55:53;;;;;;;;;;;;;;;8.32;88.91;99842.69;4972557;28;20520;-68
2021/12/24 05:58:18;;;;;;;;;;;;;;;8.40;88.10;99840.16;4972659;28;20594;-66
2021/12/24 06:00:44;;;;;;;;;;;;;;;8.48;88.27;99837.69;4972628;28;20389;-70
2021/12/24 06:03:09;;;;;;;;;;;;;;;8.40;87.83;99842.81;4953856;28;19908;-68
2021/12/24 06:05:34;;;;;;;;;;;;;;;8.45;88.20;99842.41;4966911;28;20449;-68
2021/12/24 06:08:00;;;;;;;;;;;;;;;8.40;88.19;99848.09;4961318;28;19913;-69
2021/12/24 06:10:25;;;;;;;;;;;;;;;8.39;88.30;99839.34;4986755;28;19920;-69
2021/12/24 06:12:50;;;;;;;;;;;;;;;8.36;88.56;99841.44;4969236;28;20375;-67
2021/12/24 06:15:20;;;;;;;;;;;;;;;8.29;89.14;99848.25;4973500;28;19941;-68
2021/12/24 06:17:46;;;;;;;;;;;;;;;8.29;88.82;99843.00;4956864;28;20324;-68
2021/12/24 06:20:12;;;;;;;;;;;;;;;8.35;88.45;99843.25;4971261;28;20306;-68
2021/12/24 06:22:37;;;;;;;;;;;;;;;8.50;88.18;99853.34;4972595;28;20432;-68
2021/12/24 06:25:02;;;;;;;;;;;;;;;8.47;87.76;99841.28;4970747;28;20036;-67
2021/12/24 06:27:28;;;;;;;;;;;;;;;8.40;88.49;99848.94;4971647;28;19909;-67
2021/12/24 06:29:53;;;;;;;;;;;;;;;8.43;88.84;99851.28;4953034;28;19993;-67
2021/12/24 06:32:18;;;;;;;;;;;;;;;8.36;88.42;99852.81;4954163;28;20021;-69
2021/12/24 06:34:43;;;;;;;;;;;;;;;8.32;88.34;99851.44;4971433;28;19961;-68
2021/12/24 06:37:09;;;;;;;;;;;;;;;8.31;88.61;99851.59;4964873;28;20163;-67
2021/12/24 06:39:34;;;;;;;;;;;;;;;8.43;88.54;99856.53;4963885;28;19953;-70
2021/12/24 06:41:59;;;;;;;;;;;;;;;8.48;88.58;99852.69;4953965;28;20137;-68
2021/12/24 06:44:25;;;;;;;;;;;;;;;8.47;87.80;99846.56;4955592;28;19928;-67
2021/12/24 06:46:50;;;;;;;;;;;;;;;8.38;88.30;99837.69;4955268;28;20603;-68
2021/12/24 06:49:16;;;;;;;;;;;;;;;8.40;88.25;99841.03;4956601;28;20590;-67
2021/12/24 06:51:41;;;;;;;;;;;;;;;8.23;88.81;99841.75;4953962;28;20401;-67
2021/12/24 06:54:06;;;;;;;;;;;;;;;8.38;88.77;99836.88;4973583;28;19916;-68
2021/12/24 06:56:31;;;;;;;;;;;;;;;8.28;88.65;99841.31;4950334;28;19905;-67
2021/12/24 06:58:57;;;;;;;;;;;;;;;8.16;88.95;99833.59;4958214;28;20784;-68
2021/12/24 07:01:22;;;;;;;;;;;;;;;8.19;89.16;99838.59;4957995;28;20379;-68
2021/12/24 07:03:47;;;;;;;;;;;;;;;8.31;88.73;99841.88;4959904;28;19919;-70
2021/12/24 07:06:12;;;;;;;;;;;;;;;8.42;88.01;99838.25;4975438;28;19919;-68
2021/12/24 07:08:38;;;;;;;;;;;;;;;8.39;87.86;99849.03;4979762;28;19913;-68
2021/12/24 07:11:03;;;;;;;;;;;;;;;8.33;87.97;99855.72;4971145;28;20426;-67
2021/12/24 07:13:28;;;;;;;;;;;;;;;8.27;88.42;99860.78;4960360;28;20856;-68
2021/12/24 07:15:53;;;;;;;;;;;;;;;8.27;88.28;99855.50;4973518;28;20882;-68
2021/12/24 07:18:18;;;;;;;;;;;;;;;8.30;88.47;99865.75;4969310;28;20831;-70
2021/12/24 07:20:44;;;;;;;;;;;;;;;8.43;87.90;99872.38;4965017;28;20841;-68
2021/12/24 07:23:09;;;;;;;;;;;;;;;8.42;87.81;99864.59;4956812;28;19976;-69
2021/12/24 07:25:34;;;;;;;;;;;;;;;8.31;87.91;99872.69;4954892;28;19973;-71
2021/12/24 07:28:01;;;;;;;;;;;;;;;8.20;89.00;99876.31;4953850;28;19973;-68
2021/12/24 07:30:26;;;;;;;;;;;;;;;8.46;87.92;99871.28;4954434;28;20687;-70
2021/12/24 07:32:51;;;;;;;;;;;;;;;8.31;88.01;99876.16;4960864;28;19917;-68
2021/12/24 07:35:16;;;;;;;;;;;;;;;8.29;88.01;99875.47;4971512;28;20261;-68
2021/12/24 07:37:42;;;;;;;;;;;;;;;8.63;88.86;99871.47;4969286;28;20246;-67
2021/12/24 07:40:07;;;;;;;;;;;;;;;9.34;85.53;99881.34;4974957;28;19974;-68
2021/12/24 07:42:33;;;;;;;;;;;;;;;9.30;83.54;99872.06;4965268;28;20306;-67
2021/12/24 07:44:58;;;;;;;;;;;;;;;9.18;83.63;99879.38;4957813;28;19917;-66
2021/12/24 07:47:35;;;;;;;;;;;;;;;9.02;84.40;99887.94;4974605;28;20587;-66
2021/12/24 07:50:04;;;;;;;;;;;;;;;8.88;84.76;99891.06;4960501;28;20490;-67
2021/12/24 07:52:29;;;;;;;;;;;;;;;8.76;85.60;99893.91;4969157;28;20395;-67
2021/12/24 07:54:55;;;;;;;;;;;;;;;8.65;85.99;99890.63;4973074;28;20628;-66
2021/12/24 07:57:20;;;;;;;;;;;;;;;8.63;86.07;99887.28;4975407;28;19908;-66
2021/12/24 07:59:46;;;;;;;;;;;;;;;8.50;86.93;99895.53;4974949;28;20778;-68
2021/12/24 08:02:14;;;;;;;;;;;;;;;8.36;87.44;99892.38;4974572;28;20214;-65
2021/12/24 08:04:39;;;;;;;;;;;;;;;8.42;88.08;99888.31;4976082;28;20030;-67
2021/12/24 08:07:04;;;;;;;;;;;;;;;8.63;87.45;99885.50;4976718;28;19943;-68
2021/12/24 08:09:29;;;;;;;;;;;;;;;8.54;87.22;99881.91;4971515;28;19978;-68
2021/12/24 08:11:55;;;;;;;;;;;;;;;8.42;87.92;99881.25;5003069;28;20827;-67
2021/12/24 08:14:20;;;;;;;;;;;;;;;8.42;88.19;99881.25;4960500;28;20288;-67
2021/12/24 08:16:45;;;;;;;;;;;;;;;8.34;88.25;99888.22;4961366;28;20910;-68
2021/12/24 08:19:10;;;;;;;;;;;;;;;8.26;88.78;99886.28;4967137;28;20752;-68
2021/12/24 08:21:36;;;;;;;;;;;;;;;8.34;88.71;99869.75;4965769;28;19920;-68
2021/12/24 08:24:01;;;;;;;;;;;;;;;8.32;89.03;99883.09;4954782;28;19904;-68
2021/12/24 08:26:29;;;;;;;;;;;;;;;8.33;89.06;99882.09;4972071;28;19923;-67
2021/12/24 08:28:54;;;;;;;;;;;;;;;8.28;89.26;99888.75;4960301;28;21060;-68
2021/12/24 08:31:19;;;;;;;;;;;;;;;8.37;89.20;99880.00;4959415;28;19923;-68
2021/12/24 08:33:44;;;;;;;;;;;;;;;8.31;89.38;99888.50;4965422;28;19913;-68
2021/12/24 08:36:10;;;;;;;;;;;;;;;8.28;89.60;99888.75;4954653;28;19909;-67
2021/12/24 08:38:35;;;;;;;;;;;;;;;8.40;89.45;99870.03;4940652;28;19924;-68
2021/12/24 08:41:00;;;;;;;;;;;;;;;8.31;88.91;99862.16;4951727;28;19912;-68
2021/12/24 08:43:25;;;;;;;;;;;;;;;8.25;89.34;99859.09;4954409;28;19948;-67
2021/12/24 08:45:51;;;;;;;;;;;;;;;8.31;88.72;99857.69;4956245;28;20235;-68
2021/12/24 08:48:16;;;;;;;;;;;;;;;8.21;88.99;99852.44;4960536;28;19913;-67
2021/12/24 08:50:41;;;;;;;;;;;;;;;8.32;88.44;99854.09;4961362;28;19923;-68
2021/12/24 08:53:07;;;;;;;;;;;;;;;8.46;88.29;99859.88;4971369;28;19916;-68
2021/12/24 08:55:32;;;;;;;;;;;;;;;8.42;87.89;99857.50;4963405;28;19912;-67
2021/12/24 08:57:57;;;;;;;;;;;;;;;8.28;87.96;99852.72;4965420;28;19912;-68
2021/12/24 09:00:23;;;;;;;;;;;;;;;8.38;87.96;99850.88;4962153;28;20742;-67
2021/12/24 09:02:48;;;;;;;;;;;;;;;8.45;87.90;99840.59;4968493;28;20036;-67
2021/12/24 09:05:13;;;;;;;;;;;;;;;8.33;87.62;99837.28;4974415;28;20228;-68
2021/12/24 09:07:40;;;;;;;;;;;;;;;8.48;86.81;99835.03;4968300;28;20414;-68
2021/12/24 09:10:05;;;;;;;;;;;;;;;8.52;87.07;99828.50;4971891;28;19908;-68
2021/12/24 09:12:30;;;;;;;;;;;;;;;8.49;87.09;99822.69;4971796;28;19972;-68
2021/12/24 09:14:56;;;;;;;;;;;;;;;8.48;87.40;99813.94;4976946;28;19961;-67
2021/12/24 09:17:21;;;;;;;;;;;;;;;8.57;86.61;99825.41;4963976;28;19927;-67
2021/12/24 09:19:49;;;;;;;;;;;;;;;8.77;85.60;99815.59;4962457;28;19909;-68
2021/12/24 09:22:17;;;;;;;;;;;;;;;8.67;86.00;99826.22;4952579;28;20009;-67
2021/12/24 09:24:43;;;;;;;;;;;;;;;8.82;85.13;99825.72;4971721;28;20062;-67
2021/12/24 09:27:08;;;;;;;;;;;;;;;8.71;85.60;99817.00;4972609;28;19999;-67
2021/12/24 09:29:34;;;;;;;;;;;;;;;8.76;85.29;99824.50;4957055;28;19912;-67
2021/12/24 09:31:59;;;;;;;;;;;;;;;8.79;85.08;99815.47;4957714;28;19917;-66
2021/12/24 09:34:24;;;;;;;;;;;;;;;8.75;84.58;99821.00;4969493;28;19935;-66
2021/12/24 09:36:49;;;;;;;;;;;;;;;8.84;84.88;99816.69;4974156;28;20599;-67
2021/12/24 09:39:14;;;;;;;;;;;;;;;8.86;84.36;99819.97;4968486;28;19915;-67
2021/12/24 09:41:40;;;;;;;;;;;;;;;8.97;83.31;99812.81;4991076;28;20741;-67
2021/12/24 09:44:05;;;;;;;;;;;;;;;8.84;84.27;99810.56;4975904;28;20712;-66
2021/12/24 09:46:30;;;;;;;;;;;;;;;8.81;84.19;99816.13;4967234;28;19925;-68
2021/12/24 09:48:56;;;;;;;;;;;;;;;8.86;83.77;99813.88;4960728;28;19935;-67
2021/12/24 09:51:23;;;;;;;;;;;;;;;8.96;84.03;99808.56;4968963;28;19994;-70
2021/12/24 09:53:49;;;;;;;;;;;;;;;9.20;82.81;99821.97;4974215;28;20049;-67
2021/12/24 09:56:14;;;;;;;;;;;;;;;9.16;82.19;99814.50;4967403;28;19916;-67
2021/12/24 09:58:39;;;;;;;;;;;;;;;9.10;82.55;99813.31;4972005;28;20155;-67
2021/12/24 10:01:04;;;;;;;;;;;;;;;9.14;82.07;99812.03;4966426;28;20225;-67
2021/12/24 10:03:30;;;;;;;;;;;;;;;9.01;82.24;99812.41;4973821;28;19917;-68
2021/12/24 10:05:55;;;;;;;;;;;;;;;8.92;82.75;99808.81;4970868;28;19913;-66
2021/12/24 10:08:21;;;;;;;;;;;;;;;8.77;83.23;99807.66;4970855;28;20270;-66
2021/12/24 10:10:48;;;;;;;;;;;;;;;8.75;83.06;99807.00;4972469;28;20924;-68
2021/12/24 10:13:28;;;;;;;;;;;;;;;8.71;83.11;99805.63;4984221;28;19917;-67
2021/12/24 10:16:00;;;;;;;;;;;;;;;8.87;82.97;99810.25;4982683;28;20308;-68
2021/12/24 10:18:28;;;;;;;;;;;;;;;8.88;82.65;99818.03;4980956;28;19957;-67
2021/12/24 10:21:00;;;;;;;;;;;;;;;8.76;83.12;99816.59;4965203;28;20357;-68
2021/12/24 10:23:38;;;;;;;;;;;;;;;8.68;83.56;99817.31;4959948;28;20678;-68
2021/12/24 10:26:11;;;;;;;;;;;;;;;8.69;83.70;99815.53;4975162;28;19912;-69
2021/12/24 10:28:36;;;;;;;;;;;;;;;8.83;82.58;99801.00;4983207;28;19904;-69
2021/12/24 10:31:01;;;;;;;;;;;;;;;8.81;82.83;99800.31;4979757;28;19958;-67
2021/12/24 10:33:26;;;;;;;;;;;;;;;8.71;83.04;99795.91;4986271;28;19959;-67
2021/12/24 10:36:01;;;;;;;;;;;;;;;8.80;83.04;99807.41;4985356;28;20140;-66
2021/12/24 10:38:26;;;;;;;;;;;;;;;8.84;82.63;99800.84;4980944;28;20123;-69
2021/12/24 10:40:52;;;;;;;;;;;;;;;8.84;82.61;99800.84;4993259;28;20453;-69
2021/12/24 10:43:24;;;;;;;;;;;;;;;8.92;81.54;99803.53;4978213;28;19919;-69
2021/12/24 10:46:07;;;;;;;;;;;;;;;8.90;81.77;99799.41;4974137;28;19921;-67
2021/12/24 10:48:32;;;;;;;;;;;;;;;8.91;81.57;99807.19;4981883;28;20548;-68
2021/12/24 10:51:04;;;;;;;;;;;;;;;9.06;81.14;99804.03;4982551;28;19961;-69
2021/12/24 10:53:34;;;;;;;;;;;;;;;9.26;80.25;99805.53;4977081;28;19916;-66
2021/12/24 10:56:00;;;;;;;;;;;;;;;9.24;80.20;99811.94;4955560;28;20619;-67
2021/12/24 10:58:25;;;;;;;;;;;;;;;9.25;80.77;99803.88;4998839;28;20328;-66
2021/12/24 11:00:54;;;;;;;;;;;;;;;8.97;81.34;99797.84;4964677;28;19915;-67
2021/12/24 11:03:23;;;;;;;;;;;;;;;8.93;81.99;99804.41;4987685;28;20171;-67
2021/12/24 11:06:07;;;;;;;;;;;;;;;8.99;81.95;99813.53;5018731;28;20166;-67
2021/12/24 11:08:33;;;;;;;;;;;;;;;9.03;81.21;99805.16;4990972;28;20815;-68
2021/12/24 11:10:58;;;;;;;;;;;;;;;8.98;81.31;99807.41;4984522;28;20341;-68
2021/12/24 11:13:38;;;;;;;;;;;;;;;8.90;82.55;99810.78;4974275;28;19975;-67
2021/12/24 11:16:05;;;;;;;;;;;;;;;8.90;81.72;99804.69;4960896;28;19913;-68
2021/12/24 11:18:33;;;;;;;;;;;;;;;8.92;81.95;99813.28;4975839;28;19931;-67
2021/12/24 11:20:59;;;;;;;;;;;;;;;9.10;81.25;99808.03;4979376;28;19912;-67
2021/12/24 11:23:24;;;;;;;;;;;;;;;9.17;80.49;99811.72;4988906;28;19905;-67
2021/12/24 11:25:51;;;;;;;;;;;;;;;9.24;80.02;99815.41;4976393;28;20007;-67
2021/12/24 11:28:16;;;;;;;;;;;;;;;9.28;80.23;99822.06;4976635;28;19963;-68
2021/12/24 11:30:43;;;;;;;;;;;;;;;9.09;80.55;99804.56;4982010;28;20705;-67
2021/12/24 11:33:10;;;;;;;;;;;;;;;9.11;79.95;99815.78;4980482;28;19909;-67
2021/12/24 11:35:35;;;;;;;;;;;;;;;9.11;80.11;99809.69;4983245;28;19919;-66
2021/12/24 11:38:01;;;;;;;;;;;;;;;9.06;80.11;99809.31;4985391;28;19908;-69
2021/12/24 11:40:26;;;;;;;;;;;;;;;9.11;80.91;99805.22;4979459;28;19913;-66
2021/12/24 11:42:54;;;;;;;;;;;;;;;8.99;80.73;99798.50;4977926;28;19905;-67
2021/12/24 11:45:20;;;;;;;;;;;;;;;9.06;81.25;99804.03;4979395;28;20285;-67
2021/12/24 11:47:46;;;;;;;;;;;;;;;9.05;81.16;99797.06;4981002;28;19960;-66
2021/12/24 11:50:11;;;;;;;;;;;;;;;9.20;80.72;99781.56;4978174;28;20005;-66
2021/12/24 11:52:36;;;;;;;;;;;;;;;9.05;81.56;99782.09;4961039;28;20196;-67
2021/12/24 11:55:01;;;;;;;;;;;;;;;9.14;80.50;99776.88;4957675;28;20002;-67
2021/12/24 11:57:27;;;;;;;;;;;;;;;9.23;80.31;99775.97;4974071;28;19981;-66
2021/12/24 11:59:52;;;;;;;;;;;;;;;9.18;80.68;99765.88;4997682;28;19905;-66
2021/12/24 12:02:36;;;;;;;;;;;;;;;9.05;81.21;99775.97;4982027;28;20000;-66
2021/12/24 12:05:14;;;;;;;;;;;;;;;9.03;80.64;99767.38;4995828;28;19917;-67
2021/12/24 12:07:39;;;;;;;;;;;;;;;9.14;80.60;99780.34;4986936;28;19931;-68
2021/12/24 12:10:04;;;;;;;;;;;;;;;9.18;80.31;99760.59;4990604;28;20672;-67
2021/12/24 12:12:36;;;;;;;;;;;;;;;9.13;80.63;99756.75;4988465;28;20408;-67
2021/12/24 12:15:20;;;;;;;;;;;;;;;9.13;80.78;99757.56;5000225;28;19946;-67
2021/12/24 12:17:49;;;;;;;;;;;;;;;9.09;81.20;99766.78;5000333;28;19908;-67
2021/12/24 12:20:34;;;;;;;;;;;;;;;9.19;81.00;99767.50;4981074;28;19908;-68
2021/12/24 12:23:01;;;;;;;;;;;;;;;9.14;81.24;99768.94;4996445;28;19923;-66
2021/12/24 12:25:30;;;;;;;;;;;;;;;9.19;81.30;99771.97;4981316;28;19923;-67
2021/12/24 12:27:56;;;;;;;;;;;;;;;9.18;81.26;99760.59;4979510;28;20016;-67
2021/12/24 12:30:24;;;;;;;;;;;;;;;9.23;81.14;99766.22;4981764;28;20053;-67
2021/12/24 12:32:50;;;;;;;;;;;;;;;9.20;80.22;99763.06;5003450;28;19930;-68
2021/12/24 12:35:15;;;;;;;;;;;;;;;9.18;80.94;99770.31;4976735;28;19912;-69
2021/12/24 12:37:50;;;;;;;;;;;;;;;9.12;81.22;99761.19;4983639;28;20403;-67
2021/12/24 12:40:15;;;;;;;;;;;;;;;9.11;80.74;99759.53;4984734;28;20245;-67
2021/12/24 12:42:50;;;;;;;;;;;;;;;9.25;80.58;99766.91;4992890;28;19935;-68
2021/12/24 12:45:16;;;;;;;;;;;;;;;9.28;80.59;99763.16;4997312;28;19913;-67
2021/12/24 12:47:54;;;;;;;;;;;;;;;9.21;80.15;99754.19;4981555;28;20380;-67
2021/12/24 12:50:20;;;;;;;;;;;;;;;9.13;80.90;99757.56;4994639;28;19904;-68
2021/12/24 12:52:46;;;;;;;;;;;;;;;9.26;80.54;99754.53;4985566;28;21001;-66
2021/12/24 12:55:30;;;;;;;;;;;;;;;9.24;80.07;99753.88;4998906;28;19919;-67
2021/12/24 12:58:15;;;;;;;;;;;;;;;9.40;79.20;99748.69;4979478;28;19908;-67
2021/12/24 13:00:40;;;;;;;;;;;;;;;9.46;78.65;99731.41;4983807;28;19913;-67
2021/12/24 13:05:31;;;;;;;;;;;;;;;9.52;78.56;99733.44;4989021;28;20244;-68
2021/12/24 13:07:59;;;;;;;;;;;;;;;9.58;78.24;99738.09;4984241;28;20246;-67
2021/12/24 13:10:25;;;;;;;;;;;;;;;9.63;77.65;99743.75;5003111;28;19912;-68
2021/12/24 13:12:58;;;;;;;;;;;;;;;9.59;77.21;99739.78;4985879;28;19993;-69
2021/12/24 13:15:23;;;;;;;;;;;;;;;9.62;77.48;99743.91;4997416;28;19992;-68
2021/12/24 13:17:49;;;;;;;;;;;;;;;9.55;77.42;99746.34;4997383;28;19910;-68
2021/12/24 13:20:20;;;;;;;;;;;;;;;9.55;77.71;99751.63;4989425;28;21749;-68
2021/12/24 13:22:45;;;;;;;;;;;;;;;9.46;76.95;99752.53;4963848;28;19904;-68
2021/12/24 13:25:13;;;;;;;;;;;;;;;9.52;77.22;99744.00;4972329;28;20039;-67
2021/12/24 13:27:58;;;;;;;;;;;;;;;9.49;76.83;99740.84;4966851;28;19919;-68
2021/12/24 13:30:32;;;;;;;;;;;;;;;9.53;77.30;99750.13;4983884;28;19959;-70
2021/12/24 13:33:00;;;;;;;;;;;;;;;9.59;76.30;99747.69;5006347;28;19920;-68
2021/12/24 13:35:26;;;;;;;;;;;;;;;9.47;77.37;99748.91;4998797;28;19917;-69
2021/12/24 13:37:51;;;;;;;;;;;;;;;9.34;77.86;99743.22;4986303;28;19919;-68
2021/12/24 13:40:22;;;;;;;;;;;;;;;9.39;77.85;99752.34;4979615;28;19908;-67
2021/12/24 13:42:51;;;;;;;;;;;;;;;9.29;78.00;99762.16;4989800;28;20755;-67
2021/12/24 13:45:16;;;;;;;;;;;;;;;9.30;78.34;99757.72;4962552;28;19916;-68
2021/12/24 13:55:32;;;;;;;;;;;;;;;9.02;79.43;99737.50;4986687;28;20397;-67
2021/12/24 13:58:17;;;;;;;;;;;;;;;9.01;79.67;99745.56;4984381;28;19912;-67
2021/12/24 14:01:01;;;;;;;;;;;;;;;9.09;79.27;99738.59;4983212;28;19912;-67
2021/12/24 14:03:28;;;;;;;;;;;;;;;8.99;80.27;99743.09;5016174;28;20384;-67
2021/12/24 14:05:55;;;;;;;;;;;;;;;8.96;80.29;99732.84;4996687;28;19908;-66
2021/12/24 14:08:22;;;;;;;;;;;;;;;9.07;79.68;99742.34;4976841;28;20626;-67
2021/12/24 14:10:48;;;;;;;;;;;;;;;9.04;79.94;99740.84;4990150;28;19923;-68
2021/12/24 14:13:29;;;;;;;;;;;;;;;9.02;79.47;99739.34;4973501;28;20953;-67
2021/12/24 14:18:45;;;;;;;;;;;;;;;9.05;80.07;99739.03;4986387;28;19920;-68
2021/12/24 14:24:14;;;;;;;;;;;;;;;8.88;80.63;99740.69;4985570;28;19916;-68
2021/12/24 14:26:39;;;;;;;;;;;;;;;9.08;79.77;99744.00;4982756;28;19910;-67
2021/12/24 14:29:07;;;;;;;;;;;;;;;9.09;79.25;99743.00;4981703;28;19921;-66
2021/12/24 14:31:56;;;;;;;;;;;;;;;9.05;79.38;99746.94;4986966;28;19947;-67
2021/12/24 14:34:37;;;;;;;;;;;;;;;9.11;79.35;99751.63;4982359;28;19920;-67
2021/12/24 14:37:04;;;;;;;;;;;;;;;9.07;79.89;99759.00;4985511;28;20867;-68
2021/12/24 14:39:33;;;;;;;;;;;;;;;9.26;78.79;99757.19;4993758;28;20025;-68
2021/12/24 14:42:08;;;;;;;;;;;;;;;9.11;79.72;99743.72;4980585;28;19969;-69
2021/12/24 14:44:33;;;;;;;;;;;;;;;9.11;79.84;99751.63;4987835;28;19957;-69
2021/12/24 14:46:58;;;;;;;;;;;;;;;9.13;79.80;99743.56;4981286;28;21009;-68
2021/12/24 14:49:31;;;;;;;;;;;;;;;9.10;79.84;99742.03;4983166;28;20781;-68